sensor_id;sensor_type;location;lat;lon;timestamp;temperature;humidity
26745;DHT22;14342;50.960;13.880;2022-07-29T00:00:53;19.70;55.40
26745;DHT22;14342;50.960;13.880;2022-07-29T00:01:54;19.70;55.50
26745;DHT22;14342;50.960;13.880;2022-07-29T00:02:55;19.60;55.50
26745;DHT22;14342;50.960;13.880;2022-07-29T00:03:56;19.60;55.70
26745;DHT22;14342;50.960;13.880;2022-07-29T00:04:57;19.60;55.70
26745;DHT22;14342;50.960;13.880;2022-07-29T00:05:58;19.60;55.70
26745;DHT22;14342;50.960;13.880;2022-07-29T00:06:59;19.60;55.70
26745;DHT22;14342;50.960;13.880;2022-07-29T00:08:00;19.60;55.80
26745;DHT22;14342;50.960;13.880;2022-07-29T00:09:02;19.60;55.70
26745;DHT22;14342;50.960;13.880;2022-07-29T00:10:03;19.60;55.80
26745;DHT22;14342;50.960;13.880;2022-07-29T00:11:04;19.60;55.90
26745;DHT22;14342;50.960;13.880;2022-07-29T00:12:06;19.60;56.00
26745;DHT22;14342;50.960;13.880;2022-07-29T00:13:08;19.60;56.10
26745;DHT22;14342;50.960;13.880;2022-07-29T00:14:09;19.50;56.00
26745;DHT22;14342;50.960;13.880;2022-07-29T00:15:10;19.50;56.00
26745;DHT22;14342;50.960;13.880;2022-07-29T00:16:12;19.20;55.70
26745;DHT22;14342;50.960;13.880;2022-07-29T00:17:13;19.50;56.00
26745;DHT22;14342;50.960;13.880;2022-07-29T00:18:14;19.50;56.20
26745;DHT22;14342;50.960;13.880;2022-07-29T00:19:15;19.50;56.10
26745;DHT22;14342;50.960;13.880;2022-07-29T00:20:17;19.40;56.10
26745;DHT22;14342;50.960;13.880;2022-07-29T00:21:17;19.40;56.20
26745;DHT22;14342;50.960;13.880;2022-07-29T00:22:19;19.40;56.30
26745;DHT22;14342;50.960;13.880;2022-07-29T00:23:19;19.40;56.30
26745;DHT22;14342;50.960;13.880;2022-07-29T00:24:21;19.40;56.20
26745;DHT22;14342;50.960;13.880;2022-07-29T00:25:22;19.40;56.20
26745;DHT22;14342;50.960;13.880;2022-07-29T00:26:23;19.40;56.40
26745;DHT22;14342;50.960;13.880;2022-07-29T00:27:25;19.40;56.50
26745;DHT22;14342;50.960;13.880;2022-07-29T00:28:27;19.40;56.30
26745;DHT22;14342;50.960;13.880;2022-07-29T00:29:27;19.40;56.40
26745;DHT22;14342;50.960;13.880;2022-07-29T00:30:29;19.40;56.50
26745;DHT22;14342;50.960;13.880;2022-07-29T00:31:29;19.40;56.50
26745;DHT22;14342;50.960;13.880;2022-07-29T00:32:31;19.40;56.60
26745;DHT22;14342;50.960;13.880;2022-07-29T00:33:32;19.40;56.40
26745;DHT22;14342;50.960;13.880;2022-07-29T00:34:33;19.40;56.50
26745;DHT22;14342;50.960;13.880;2022-07-29T00:35:52;19.40;56.40
26745;DHT22;14342;50.960;13.880;2022-07-29T00:36:53;19.40;56.40
26745;DHT22;14342;50.960;13.880;2022-07-29T00:37:53;19.40;56.60
26745;DHT22;14342;50.960;13.880;2022-07-29T00:38:55;19.30;56.50
26745;DHT22;14342;50.960;13.880;2022-07-29T00:39:55;19.30;56.60
26745;DHT22;14342;50.960;13.880;2022-07-29T00:40:57;19.30;56.80
26745;DHT22;14342;50.960;13.880;2022-07-29T00:41:58;19.30;56.90
26745;DHT22;14342;50.960;13.880;2022-07-29T00:43:00;19.30;56.90
26745;DHT22;14342;50.960;13.880;2022-07-29T00:44:02;19.20;56.70
26745;DHT22;14342;50.960;13.880;2022-07-29T00:45:04;19.30;57.00
26745;DHT22;14342;50.960;13.880;2022-07-29T00:46:04;19.30;57.00
26745;DHT22;14342;50.960;13.880;2022-07-29T00:47:06;19.20;56.90
26745;DHT22;14342;50.960;13.880;2022-07-29T00:48:07;19.20;57.10
26745;DHT22;14342;50.960;13.880;2022-07-29T00:49:09;19.20;57.20
26745;DHT22;14342;50.960;13.880;2022-07-29T00:50:11;19.20;57.20
26745;DHT22;14342;50.960;13.880;2022-07-29T00:51:12;19.20;57.00
26745;DHT22;14342;50.960;13.880;2022-07-29T00:52:14;19.20;57.10
26745;DHT22;14342;50.960;13.880;2022-07-29T00:53:15;19.10;57.10
26745;DHT22;14342;50.960;13.880;2022-07-29T00:54:17;19.10;57.20
26745;DHT22;14342;50.960;13.880;2022-07-29T00:55:18;19.00;57.30
26745;DHT22;14342;50.960;13.880;2022-07-29T00:56:19;19.00;57.50
26745;DHT22;14342;50.960;13.880;2022-07-29T00:57:20;18.90;57.60
26745;DHT22;14342;50.960;13.880;2022-07-29T00:58:23;18.90;57.80
26745;DHT22;14342;50.960;13.880;2022-07-29T00:59:24;18.80;57.80
26745;DHT22;14342;50.960;13.880;2022-07-29T01:00:26;18.80;58.10
26745;DHT22;14342;50.960;13.880;2022-07-29T01:01:28;18.80;58.10
26745;DHT22;14342;50.960;13.880;2022-07-29T01:02:29;18.70;58.10
26745;DHT22;14342;50.960;13.880;2022-07-29T01:03:30;18.50;58.00
26745;DHT22;14342;50.960;13.880;2022-07-29T01:04:31;18.70;58.20
26745;DHT22;14342;50.960;13.880;2022-07-29T01:05:32;18.70;58.20
26745;DHT22;14342;50.960;13.880;2022-07-29T01:06:34;18.70;58.20
26745;DHT22;14342;50.960;13.880;2022-07-29T01:07:35;19.00;58.50
26745;DHT22;14342;50.960;13.880;2022-07-29T01:08:37;18.70;58.50
26745;DHT22;14342;50.960;13.880;2022-07-29T01:09:37;18.80;58.40
26745;DHT22;14342;50.960;13.880;2022-07-29T01:10:40;18.70;58.40
26745;DHT22;14342;50.960;13.880;2022-07-29T01:11:42;18.70;58.40
26745;DHT22;14342;50.960;13.880;2022-07-29T01:12:43;18.80;58.50
26745;DHT22;14342;50.960;13.880;2022-07-29T01:13:47;18.70;58.70
26745;DHT22;14342;50.960;13.880;2022-07-29T01:14:47;18.70;58.40
26745;DHT22;14342;50.960;13.880;2022-07-29T01:15:51;18.70;58.40
26745;DHT22;14342;50.960;13.880;2022-07-29T01:16:59;18.70;58.50
26745;DHT22;14342;50.960;13.880;2022-07-29T01:18:03;18.70;58.60
26745;DHT22;14342;50.960;13.880;2022-07-29T01:19:07;18.60;58.70
26745;DHT22;14342;50.960;13.880;2022-07-29T01:20:16;18.60;58.80
26745;DHT22;14342;50.960;13.880;2022-07-29T01:21:24;18.60;58.90
26745;DHT22;14342;50.960;13.880;2022-07-29T01:22:31;18.50;59.00
26745;DHT22;14342;50.960;13.880;2022-07-29T01:23:42;18.50;59.00
26745;DHT22;14342;50.960;13.880;2022-07-29T01:24:51;18.50;59.10
26745;DHT22;14342;50.960;13.880;2022-07-29T01:26:04;18.50;59.20
26745;DHT22;14342;50.960;13.880;2022-07-29T01:27:16;18.50;59.20
26745;DHT22;14342;50.960;13.880;2022-07-29T01:29:49;18.50;59.20
26745;DHT22;14342;50.960;13.880;2022-07-29T01:30:54;18.50;59.50
26745;DHT22;14342;50.960;13.880;2022-07-29T01:31:56;18.50;59.60
26745;DHT22;14342;50.960;13.880;2022-07-29T01:33:00;18.40;59.40
26745;DHT22;14342;50.960;13.880;2022-07-29T01:34:03;18.40;59.40
26745;DHT22;14342;50.960;13.880;2022-07-29T01:35:06;18.40;59.40
26745;DHT22;14342;50.960;13.880;2022-07-29T01:36:10;18.40;59.60
26745;DHT22;14342;50.960;13.880;2022-07-29T01:37:15;18.40;59.60
26745;DHT22;14342;50.960;13.880;2022-07-29T01:38:18;18.40;59.80
26745;DHT22;14342;50.960;13.880;2022-07-29T01:39:23;18.30;59.80
26745;DHT22;14342;50.960;13.880;2022-07-29T01:40:28;18.30;59.90
26745;DHT22;14342;50.960;13.880;2022-07-29T01:41:31;18.20;60.00
26745;DHT22;14342;50.960;13.880;2022-07-29T01:42:35;18.20;60.10
26745;DHT22;14342;50.960;13.880;2022-07-29T01:43:38;18.20;60.20
26745;DHT22;14342;50.960;13.880;2022-07-29T01:44:41;18.20;60.40
26745;DHT22;14342;50.960;13.880;2022-07-29T01:45:46;18.20;60.20
26745;DHT22;14342;50.960;13.880;2022-07-29T01:46:49;18.20;60.60
26745;DHT22;14342;50.960;13.880;2022-07-29T01:47:54;18.20;60.60
26745;DHT22;14342;50.960;13.880;2022-07-29T01:48:57;18.20;60.50
26745;DHT22;14342;50.960;13.880;2022-07-29T01:50:00;18.20;60.50
26745;DHT22;14342;50.960;13.880;2022-07-29T01:51:02;18.20;60.50
26745;DHT22;14342;50.960;13.880;2022-07-29T01:52:07;18.20;60.50
26745;DHT22;14342;50.960;13.880;2022-07-29T01:53:08;18.20;60.60
26745;DHT22;14342;50.960;13.880;2022-07-29T01:54:13;18.20;60.70
26745;DHT22;14342;50.960;13.880;2022-07-29T01:55:15;18.20;60.60
26745;DHT22;14342;50.960;13.880;2022-07-29T01:56:16;18.20;60.80
26745;DHT22;14342;50.960;13.880;2022-07-29T01:57:19;18.20;60.80
26745;DHT22;14342;50.960;13.880;2022-07-29T01:58:22;18.20;61.00
26745;DHT22;14342;50.960;13.880;2022-07-29T01:59:24;18.20;60.90
26745;DHT22;14342;50.960;13.880;2022-07-29T02:00:26;18.20;60.90
26745;DHT22;14342;50.960;13.880;2022-07-29T02:01:28;18.20;60.80
26745;DHT22;14342;50.960;13.880;2022-07-29T02:02:31;18.20;60.90
26745;DHT22;14342;50.960;13.880;2022-07-29T02:03:32;18.20;60.70
26745;DHT22;14342;50.960;13.880;2022-07-29T02:04:36;18.20;60.80
26745;DHT22;14342;50.960;13.880;2022-07-29T02:05:38;18.20;60.90
26745;DHT22;14342;50.960;13.880;2022-07-29T02:06:42;18.10;61.00
26745;DHT22;14342;50.960;13.880;2022-07-29T02:07:43;18.20;60.80
26745;DHT22;14342;50.960;13.880;2022-07-29T02:08:45;18.10;61.20
26745;DHT22;14342;50.960;13.880;2022-07-29T02:09:47;18.10;61.30
26745;DHT22;14342;50.960;13.880;2022-07-29T02:10:50;18.10;61.30
26745;DHT22;14342;50.960;13.880;2022-07-29T02:11:52;18.20;61.50
26745;DHT22;14342;50.960;13.880;2022-07-29T02:12:54;18.20;61.30
26745;DHT22;14342;50.960;13.880;2022-07-29T02:13:56;18.10;61.30
26745;DHT22;14342;50.960;13.880;2022-07-29T02:14:59;18.10;61.50
26745;DHT22;14342;50.960;13.880;2022-07-29T02:16:01;18.10;61.60
26745;DHT22;14342;50.960;13.880;2022-07-29T02:17:05;18.10;61.80
26745;DHT22;14342;50.960;13.880;2022-07-29T02:18:06;18.10;61.90
26745;DHT22;14342;50.960;13.880;2022-07-29T02:19:08;18.10;62.00
26745;DHT22;14342;50.960;13.880;2022-07-29T02:20:10;18.10;62.20
26745;DHT22;14342;50.960;13.880;2022-07-29T02:21:12;18.10;62.40
26745;DHT22;14342;50.960;13.880;2022-07-29T02:22:13;18.10;62.50
26745;DHT22;14342;50.960;13.880;2022-07-29T02:23:17;18.10;62.50
26745;DHT22;14342;50.960;13.880;2022-07-29T02:24:18;18.10;62.60
26745;DHT22;14342;50.960;13.880;2022-07-29T02:25:20;18.10;62.80
26745;DHT22;14342;50.960;13.880;2022-07-29T02:26:21;18.10;63.20
26745;DHT22;14342;50.960;13.880;2022-07-29T02:27:24;18.10;63.10
26745;DHT22;14342;50.960;13.880;2022-07-29T02:28:26;18.10;63.00
26745;DHT22;14342;50.960;13.880;2022-07-29T02:29:28;18.10;62.80
26745;DHT22;14342;50.960;13.880;2022-07-29T02:30:30;18.10;63.00
26745;DHT22;14342;50.960;13.880;2022-07-29T02:31:32;18.10;63.10
26745;DHT22;14342;50.960;13.880;2022-07-29T02:32:35;18.10;63.30
26745;DHT22;14342;50.960;13.880;2022-07-29T02:33:38;18.10;63.20
26745;DHT22;14342;50.960;13.880;2022-07-29T02:34:41;18.10;63.10
26745;DHT22;14342;50.960;13.880;2022-07-29T02:35:43;18.10;63.30
26745;DHT22;14342;50.960;13.880;2022-07-29T02:36:45;18.10;63.50
26745;DHT22;14342;50.960;13.880;2022-07-29T02:37:46;18.10;63.60
26745;DHT22;14342;50.960;13.880;2022-07-29T02:39:08;18.10;63.60
26745;DHT22;14342;50.960;13.880;2022-07-29T02:40:10;18.10;63.80
26745;DHT22;14342;50.960;13.880;2022-07-29T02:41:13;18.10;63.90
26745;DHT22;14342;50.960;13.880;2022-07-29T02:42:16;18.10;64.00
26745;DHT22;14342;50.960;13.880;2022-07-29T02:43:18;18.10;63.90
26745;DHT22;14342;50.960;13.880;2022-07-29T02:44:22;18.10;64.10
26745;DHT22;14342;50.960;13.880;2022-07-29T02:45:25;18.10;64.20
26745;DHT22;14342;50.960;13.880;2022-07-29T02:46:29;18.10;63.80
26745;DHT22;14342;50.960;13.880;2022-07-29T02:47:34;18.10;64.20
26745;DHT22;14342;50.960;13.880;2022-07-29T02:48:37;18.10;64.20
26745;DHT22;14342;50.960;13.880;2022-07-29T02:49:40;18.10;64.40
26745;DHT22;14342;50.960;13.880;2022-07-29T02:50:44;18.10;65.90
26745;DHT22;14342;50.960;13.880;2022-07-29T02:51:46;18.10;65.40
26745;DHT22;14342;50.960;13.880;2022-07-29T02:52:52;18.20;65.00
26745;DHT22;14342;50.960;13.880;2022-07-29T02:53:54;18.10;64.90
26745;DHT22;14342;50.960;13.880;2022-07-29T02:54:59;18.20;64.80
26745;DHT22;14342;50.960;13.880;2022-07-29T02:56:04;18.20;64.90
26745;DHT22;14342;50.960;13.880;2022-07-29T02:57:09;18.20;65.00
26745;DHT22;14342;50.960;13.880;2022-07-29T02:58:13;18.20;65.00
26745;DHT22;14342;50.960;13.880;2022-07-29T02:59:16;18.20;65.10
26745;DHT22;14342;50.960;13.880;2022-07-29T03:00:21;18.20;65.30
26745;DHT22;14342;50.960;13.880;2022-07-29T03:01:24;18.20;65.50
26745;DHT22;14342;50.960;13.880;2022-07-29T03:02:28;18.20;65.40
26745;DHT22;14342;50.960;13.880;2022-07-29T03:03:32;18.20;65.30
26745;DHT22;14342;50.960;13.880;2022-07-29T03:04:36;18.20;65.40
26745;DHT22;14342;50.960;13.880;2022-07-29T03:05:40;18.20;65.40
26745;DHT22;14342;50.960;13.880;2022-07-29T03:06:41;18.20;65.30
26745;DHT22;14342;50.960;13.880;2022-07-29T03:07:45;18.20;65.70
26745;DHT22;14342;50.960;13.880;2022-07-29T03:08:46;18.20;65.60
26745;DHT22;14342;50.960;13.880;2022-07-29T03:09:48;18.20;65.60
26745;DHT22;14342;50.960;13.880;2022-07-29T03:10:49;18.10;65.90
26745;DHT22;14342;50.960;13.880;2022-07-29T03:11:52;18.10;66.00
26745;DHT22;14342;50.960;13.880;2022-07-29T03:12:54;18.10;66.10
26745;DHT22;14342;50.960;13.880;2022-07-29T03:13:56;18.10;66.30
26745;DHT22;14342;50.960;13.880;2022-07-29T03:14:57;18.10;66.30
26745;DHT22;14342;50.960;13.880;2022-07-29T03:16:00;18.10;66.10
26745;DHT22;14342;50.960;13.880;2022-07-29T03:17:01;18.10;66.10
26745;DHT22;14342;50.960;13.880;2022-07-29T03:18:03;18.10;66.20
26745;DHT22;14342;50.960;13.880;2022-07-29T03:19:05;18.10;66.60
26745;DHT22;14342;50.960;13.880;2022-07-29T03:20:09;18.10;66.30
26745;DHT22;14342;50.960;13.880;2022-07-29T03:21:10;18.10;66.40
26745;DHT22;14342;50.960;13.880;2022-07-29T03:22:12;18.10;66.60
26745;DHT22;14342;50.960;13.880;2022-07-29T03:23:18;18.10;66.80
26745;DHT22;14342;50.960;13.880;2022-07-29T03:24:25;18.10;66.90
26745;DHT22;14342;50.960;13.880;2022-07-29T03:25:27;18.10;67.10
26745;DHT22;14342;50.960;13.880;2022-07-29T03:26:28;18.10;66.90
26745;DHT22;14342;50.960;13.880;2022-07-29T03:27:29;18.10;67.30
26745;DHT22;14342;50.960;13.880;2022-07-29T03:28:31;18.10;67.70
26745;DHT22;14342;50.960;13.880;2022-07-29T03:29:31;18.10;67.80
26745;DHT22;14342;50.960;13.880;2022-07-29T03:30:33;18.10;68.10
26745;DHT22;14342;50.960;13.880;2022-07-29T03:31:34;18.10;68.30
26745;DHT22;14342;50.960;13.880;2022-07-29T03:32:35;18.10;69.00
26745;DHT22;14342;50.960;13.880;2022-07-29T03:33:36;18.00;69.60
26745;DHT22;14342;50.960;13.880;2022-07-29T03:34:37;17.90;70.00
26745;DHT22;14342;50.960;13.880;2022-07-29T03:35:39;17.90;70.30
26745;DHT22;14342;50.960;13.880;2022-07-29T03:36:41;17.80;70.80
26745;DHT22;14342;50.960;13.880;2022-07-29T03:37:42;17.80;70.90
26745;DHT22;14342;50.960;13.880;2022-07-29T03:38:43;17.80;71.10
26745;DHT22;14342;50.960;13.880;2022-07-29T03:39:45;17.80;70.80
26745;DHT22;14342;50.960;13.880;2022-07-29T03:40:48;17.90;71.10
26745;DHT22;14342;50.960;13.880;2022-07-29T03:41:52;17.90;70.90
26745;DHT22;14342;50.960;13.880;2022-07-29T03:42:53;17.90;70.60
26745;DHT22;14342;50.960;13.880;2022-07-29T03:43:55;17.90;70.60
26745;DHT22;14342;50.960;13.880;2022-07-29T03:44:57;17.90;70.60
26745;DHT22;14342;50.960;13.880;2022-07-29T03:45:59;17.90;70.50
26745;DHT22;14342;50.960;13.880;2022-07-29T03:47:00;18.00;70.60
26745;DHT22;14342;50.960;13.880;2022-07-29T03:48:05;17.90;70.90
26745;DHT22;14342;50.960;13.880;2022-07-29T03:49:07;17.90;70.90
26745;DHT22;14342;50.960;13.880;2022-07-29T03:50:10;17.90;71.40
26745;DHT22;14342;50.960;13.880;2022-07-29T03:51:13;17.90;72.10
26745;DHT22;14342;50.960;13.880;2022-07-29T03:52:15;17.80;72.40
26745;DHT22;14342;50.960;13.880;2022-07-29T03:53:15;17.70;73.60
26745;DHT22;14342;50.960;13.880;2022-07-29T03:54:17;17.70;73.20
26745;DHT22;14342;50.960;13.880;2022-07-29T03:55:18;17.60;73.10
26745;DHT22;14342;50.960;13.880;2022-07-29T03:56:20;17.60;73.30
26745;DHT22;14342;50.960;13.880;2022-07-29T03:57:23;17.70;73.20
26745;DHT22;14342;50.960;13.880;2022-07-29T03:58:25;17.80;73.30
26745;DHT22;14342;50.960;13.880;2022-07-29T03:59:26;17.80;73.10
26745;DHT22;14342;50.960;13.880;2022-07-29T04:00:28;17.80;73.00
26745;DHT22;14342;50.960;13.880;2022-07-29T04:01:29;17.90;73.10
26745;DHT22;14342;50.960;13.880;2022-07-29T04:02:31;17.90;73.20
26745;DHT22;14342;50.960;13.880;2022-07-29T04:03:31;17.90;73.30
26745;DHT22;14342;50.960;13.880;2022-07-29T04:04:33;17.90;73.00
26745;DHT22;14342;50.960;13.880;2022-07-29T04:05:34;18.00;73.10
26745;DHT22;14342;50.960;13.880;2022-07-29T04:06:41;18.00;73.20
26745;DHT22;14342;50.960;13.880;2022-07-29T04:07:43;18.10;73.50
26745;DHT22;14342;50.960;13.880;2022-07-29T04:08:44;17.90;73.70
26745;DHT22;14342;50.960;13.880;2022-07-29T04:09:45;17.90;74.20
26745;DHT22;14342;50.960;13.880;2022-07-29T04:10:47;17.90;74.80
26745;DHT22;14342;50.960;13.880;2022-07-29T04:11:47;17.80;75.30
26745;DHT22;14342;50.960;13.880;2022-07-29T04:12:49;17.80;76.20
26745;DHT22;14342;50.960;13.880;2022-07-29T04:13:49;17.80;76.80
26745;DHT22;14342;50.960;13.880;2022-07-29T04:14:51;17.70;77.50
26745;DHT22;14342;50.960;13.880;2022-07-29T04:15:51;17.60;78.10
26745;DHT22;14342;50.960;13.880;2022-07-29T04:16:53;17.50;78.80
26745;DHT22;14342;50.960;13.880;2022-07-29T04:17:54;17.50;79.20
26745;DHT22;14342;50.960;13.880;2022-07-29T04:18:55;17.50;80.40
26745;DHT22;14342;50.960;13.880;2022-07-29T04:19:56;17.50;80.50
26745;DHT22;14342;50.960;13.880;2022-07-29T04:20:58;17.50;80.70
26745;DHT22;14342;50.960;13.880;2022-07-29T04:22:02;17.60;80.90
26745;DHT22;14342;50.960;13.880;2022-07-29T04:23:03;17.60;80.50
26745;DHT22;14342;50.960;13.880;2022-07-29T04:24:04;17.70;80.30
26745;DHT22;14342;50.960;13.880;2022-07-29T04:25:06;17.70;80.40
26745;DHT22;14342;50.960;13.880;2022-07-29T04:26:07;17.70;82.10
26745;DHT22;14342;50.960;13.880;2022-07-29T04:27:09;17.70;81.80
26745;DHT22;14342;50.960;13.880;2022-07-29T04:28:10;17.80;81.30
26745;DHT22;14342;50.960;13.880;2022-07-29T04:29:12;18.00;82.10
26745;DHT22;14342;50.960;13.880;2022-07-29T04:30:14;17.80;82.40
26745;DHT22;14342;50.960;13.880;2022-07-29T04:31:16;17.80;82.90
26745;DHT22;14342;50.960;13.880;2022-07-29T04:32:16;17.80;82.60
26745;DHT22;14342;50.960;13.880;2022-07-29T04:33:18;17.90;82.10
26745;DHT22;14342;50.960;13.880;2022-07-29T04:34:18;17.90;82.20
26745;DHT22;14342;50.960;13.880;2022-07-29T04:35:20;17.90;83.40
26745;DHT22;14342;50.960;13.880;2022-07-29T04:36:20;17.90;84.30
26745;DHT22;14342;50.960;13.880;2022-07-29T04:37:23;17.80;84.90
26745;DHT22;14342;50.960;13.880;2022-07-29T04:38:24;17.80;85.60
26745;DHT22;14342;50.960;13.880;2022-07-29T04:39:25;17.80;85.90
26745;DHT22;14342;50.960;13.880;2022-07-29T04:40:26;17.70;86.10
26745;DHT22;14342;50.960;13.880;2022-07-29T04:41:28;17.70;86.30
26745;DHT22;14342;50.960;13.880;2022-07-29T04:42:28;17.60;87.20
26745;DHT22;14342;50.960;13.880;2022-07-29T04:43:30;17.60;87.70
26745;DHT22;14342;50.960;13.880;2022-07-29T04:44:31;17.50;88.60
26745;DHT22;14342;50.960;13.880;2022-07-29T04:45:32;17.50;88.40
26745;DHT22;14342;50.960;13.880;2022-07-29T04:46:33;17.50;89.00
26745;DHT22;14342;50.960;13.880;2022-07-29T04:47:35;17.60;89.80
26745;DHT22;14342;50.960;13.880;2022-07-29T04:48:35;17.50;90.10
26745;DHT22;14342;50.960;13.880;2022-07-29T04:49:37;17.60;90.00
26745;DHT22;14342;50.960;13.880;2022-07-29T04:50:38;17.60;90.20
26745;DHT22;14342;50.960;13.880;2022-07-29T04:51:40;17.60;89.60
26745;DHT22;14342;50.960;13.880;2022-07-29T04:52:42;17.70;89.70
26745;DHT22;14342;50.960;13.880;2022-07-29T04:53:43;17.70;90.10
26745;DHT22;14342;50.960;13.880;2022-07-29T04:54:44;17.60;90.20
26745;DHT22;14342;50.960;13.880;2022-07-29T04:55:45;17.50;90.80
26745;DHT22;14342;50.960;13.880;2022-07-29T04:56:46;17.50;91.60
26745;DHT22;14342;50.960;13.880;2022-07-29T04:57:48;17.40;91.90
26745;DHT22;14342;50.960;13.880;2022-07-29T04:58:48;17.40;92.10
26745;DHT22;14342;50.960;13.880;2022-07-29T04:59:50;17.40;92.30
26745;DHT22;14342;50.960;13.880;2022-07-29T05:00:50;17.40;92.10
26745;DHT22;14342;50.960;13.880;2022-07-29T05:01:52;17.40;93.40
26745;DHT22;14342;50.960;13.880;2022-07-29T05:02:52;17.40;93.60
26745;DHT22;14342;50.960;13.880;2022-07-29T05:03:54;17.40;93.50
26745;DHT22;14342;50.960;13.880;2022-07-29T05:04:55;17.40;93.90
26745;DHT22;14342;50.960;13.880;2022-07-29T05:05:56;17.30;93.80
26745;DHT22;14342;50.960;13.880;2022-07-29T05:06:57;17.30;94.50
26745;DHT22;14342;50.960;13.880;2022-07-29T05:08:00;17.40;94.00
26745;DHT22;14342;50.960;13.880;2022-07-29T05:09:00;17.50;93.90
26745;DHT22;14342;50.960;13.880;2022-07-29T05:10:02;17.50;93.50
26745;DHT22;14342;50.960;13.880;2022-07-29T05:11:03;17.60;93.10
26745;DHT22;14342;50.960;13.880;2022-07-29T05:12:05;17.70;93.10
26745;DHT22;14342;50.960;13.880;2022-07-29T05:13:06;17.70;94.00
26745;DHT22;14342;50.960;13.880;2022-07-29T05:14:07;17.70;93.90
26745;DHT22;14342;50.960;13.880;2022-07-29T05:15:09;17.90;94.20
26745;DHT22;14342;50.960;13.880;2022-07-29T05:16:10;17.70;94.30
26745;DHT22;14342;50.960;13.880;2022-07-29T05:17:11;17.70;94.20
26745;DHT22;14342;50.960;13.880;2022-07-29T05:18:12;17.80;94.00
26745;DHT22;14342;50.960;13.880;2022-07-29T05:19:14;17.80;94.10
26745;DHT22;14342;50.960;13.880;2022-07-29T05:20:15;17.90;94.40
26745;DHT22;14342;50.960;13.880;2022-07-29T05:21:16;17.90;94.10
26745;DHT22;14342;50.960;13.880;2022-07-29T05:22:17;17.90;94.90
26745;DHT22;14342;50.960;13.880;2022-07-29T05:23:20;17.90;94.90
26745;DHT22;14342;50.960;13.880;2022-07-29T05:24:21;17.90;95.10
26745;DHT22;14342;50.960;13.880;2022-07-29T05:25:22;17.90;94.90
26745;DHT22;14342;50.960;13.880;2022-07-29T05:26:24;17.90;95.30
26745;DHT22;14342;50.960;13.880;2022-07-29T05:27:24;17.90;95.00
26745;DHT22;14342;50.960;13.880;2022-07-29T05:28:26;18.00;94.60
26745;DHT22;14342;50.960;13.880;2022-07-29T05:29:26;18.00;95.20
26745;DHT22;14342;50.960;13.880;2022-07-29T05:30:28;18.10;94.80
26745;DHT22;14342;50.960;13.880;2022-07-29T05:31:29;18.20;95.00
26745;DHT22;14342;50.960;13.880;2022-07-29T05:32:30;18.20;95.50
26745;DHT22;14342;50.960;13.880;2022-07-29T05:33:32;18.30;95.90
26745;DHT22;14342;50.960;13.880;2022-07-29T05:34:32;18.30;95.40
26745;DHT22;14342;50.960;13.880;2022-07-29T05:35:34;18.40;96.00
26745;DHT22;14342;50.960;13.880;2022-07-29T05:36:35;18.50;95.20
26745;DHT22;14342;50.960;13.880;2022-07-29T05:37:36;18.50;95.40
26745;DHT22;14342;50.960;13.880;2022-07-29T05:38:38;18.60;95.50
26745;DHT22;14342;50.960;13.880;2022-07-29T05:39:40;18.50;96.10
26745;DHT22;14342;50.960;13.880;2022-07-29T05:40:40;18.50;96.70
26745;DHT22;14342;50.960;13.880;2022-07-29T05:41:42;18.40;97.10
26745;DHT22;14342;50.960;13.880;2022-07-29T05:42:43;18.30;97.70
26745;DHT22;14342;50.960;13.880;2022-07-29T05:43:44;18.30;98.00
26745;DHT22;14342;50.960;13.880;2022-07-29T05:44:45;18.40;98.10
26745;DHT22;14342;50.960;13.880;2022-07-29T05:45:47;18.40;98.50
26745;DHT22;14342;50.960;13.880;2022-07-29T05:46:48;18.40;99.50
26745;DHT22;14342;50.960;13.880;2022-07-29T05:47:49;18.40;99.90
26745;DHT22;14342;50.960;13.880;2022-07-29T05:48:50;18.40;99.70
26745;DHT22;14342;50.960;13.880;2022-07-29T05:49:51;18.50;99.20
26745;DHT22;14342;50.960;13.880;2022-07-29T05:50:52;18.50;99.00
26745;DHT22;14342;50.960;13.880;2022-07-29T05:51:54;18.50;99.30
26745;DHT22;14342;50.960;13.880;2022-07-29T05:52:55;18.40;99.60
26745;DHT22;14342;50.960;13.880;2022-07-29T05:53:58;18.40;99.90
26745;DHT22;14342;50.960;13.880;2022-07-29T05:54:58;18.40;99.60
26745;DHT22;14342;50.960;13.880;2022-07-29T05:56:03;18.50;99.30
26745;DHT22;14342;50.960;13.880;2022-07-29T05:57:05;18.50;99.10
26745;DHT22;14342;50.960;13.880;2022-07-29T05:58:06;18.50;98.90
26745;DHT22;14342;50.960;13.880;2022-07-29T05:59:07;18.40;99.40
26745;DHT22;14342;50.960;13.880;2022-07-29T06:00:09;18.50;99.80
26745;DHT22;14342;50.960;13.880;2022-07-29T06:01:10;18.50;99.60
26745;DHT22;14342;50.960;13.880;2022-07-29T06:02:11;18.50;99.90
26745;DHT22;14342;50.960;13.880;2022-07-29T06:03:13;18.60;99.90
26745;DHT22;14342;50.960;13.880;2022-07-29T06:04:13;18.70;98.10
26745;DHT22;14342;50.960;13.880;2022-07-29T06:05:15;18.70;98.30
26745;DHT22;14342;50.960;13.880;2022-07-29T06:06:16;18.80;98.40
26745;DHT22;14342;50.960;13.880;2022-07-29T06:07:17;18.90;98.50
26745;DHT22;14342;50.960;13.880;2022-07-29T06:08:18;18.90;97.20
26745;DHT22;14342;50.960;13.880;2022-07-29T06:09:21;19.00;97.00
26745;DHT22;14342;50.960;13.880;2022-07-29T06:10:23;19.00;97.00
26745;DHT22;14342;50.960;13.880;2022-07-29T06:11:24;19.00;96.60
26745;DHT22;14342;50.960;13.880;2022-07-29T06:12:26;19.10;96.50
26745;DHT22;14342;50.960;13.880;2022-07-29T06:13:26;19.20;96.50
26745;DHT22;14342;50.960;13.880;2022-07-29T06:14:28;19.30;95.60
26745;DHT22;14342;50.960;13.880;2022-07-29T06:15:29;19.40;95.20
26745;DHT22;14342;50.960;13.880;2022-07-29T06:16:30;19.50;95.00
26745;DHT22;14342;50.960;13.880;2022-07-29T06:17:32;19.60;94.70
26745;DHT22;14342;50.960;13.880;2022-07-29T06:18:32;19.80;94.00
26745;DHT22;14342;50.960;13.880;2022-07-29T06:19:34;19.90;93.50
26745;DHT22;14342;50.960;13.880;2022-07-29T06:20:35;20.00;93.70
26745;DHT22;14342;50.960;13.880;2022-07-29T06:21:37;20.00;93.60
26745;DHT22;14342;50.960;13.880;2022-07-29T06:22:41;20.10;93.70
26745;DHT22;14342;50.960;13.880;2022-07-29T06:23:43;20.20;93.30
26745;DHT22;14342;50.960;13.880;2022-07-29T06:24:46;20.30;92.90
26745;DHT22;14342;50.960;13.880;2022-07-29T06:25:48;20.30;92.40
26745;DHT22;14342;50.960;13.880;2022-07-29T06:26:48;20.30;92.40
26745;DHT22;14342;50.960;13.880;2022-07-29T06:27:50;20.40;92.20